La Grange, Missouri
Current Conditions -  °F | °C
As of 10:54 PM on Wednesday 22 Oct 2014 (Local Time) from KUIN Reporting Station
Clear Clear  
Wind Chill: 44°   Ceiling: Unl
Heat Index: 47°   Visibility: 10mi
Dew Point: 40°   Wind: 7mph
Humidity: 77%   Direction: 130°SE
Pressure: 30.2"   Gusts: NA
Location:  40.04°N, 91.5°W
Report Text: KUIN 230354Z AUTO 13006KT 10SM CLR 08/04 A3020 RMK AO2 SLP230 T00830044
Loading
Personal Weather Stations






























Interactive Weather Map
Tropical Storm Tracking
New forecast layout! Learn more

10-Day Weather Forecast

Advertisements
Track Severe Weather on mobile